Weather Display times are in UTC Format only
Valid From:    Region:
Series:          
Hours Ahead:
Location:
      
  Type Location Message Text Print selected items
VOLMET LLBG THIS IS BEN GURION VOLMET.
      TAF BEN GURION, VALID FROM 250000 TILL 260000, WIND 160 DEGREES, 4
      KNOTS, VISIBILITY 10 KILOMETERS OR MORE, CLOUD FEW 1 THOUSAND 8
METAR LLBG METAR LLBG 250020Z VRB02KT 9999 FEW019 27/23 Q1005 TEMPO BKN017=
     
     
ATIS LLBG THIS IS BEN GURION, INFORMATION ALFA.
      TIME 0020.
      EXPECT ILS APPROACH FOR ARRIVAL RUNWAY 12.
METAR LLET METAR LLET 242350Z NIL=
     
     
METAR LLHA METAR LLHA 242350Z NIL=
     
     
METAR LLIB METAR LLIB 242350Z NIL=
     
     
METAR LLOV METAR LLOV 242350Z NIL=
     
     
METAR LLSD METAR LLSD 242350Z NIL=
     
     
ATIS_E LLET THIS IS EILAT, INFORMATION ALFA.
      TIME 1850.
      EXPECT NAESICA DAKAR APPROACH FOR ACTIVE RUNWAY 03.
SPECI LLSD SPECI LLSD 240400Z 28004KT 9999 FEW020 SCT025 27/22 Q1005=
     
     
SPECI LLHA SPECI LLHA 240330Z 25004KT 220V290 9999 SCT025 27/22 Q1005=
     
     
SPECI LLIB SPECI LLIB 240302Z VRB03KT 9000 FEW030 22/20 Q1006=
     
     
SPECI LLET SPECI LLET 240230Z 01013KT CAVOK 30/19 Q1003=
      SPECI LLSD 240230Z 27004KT 9999 SCT021 27/22 Q1005=